Time;durP1;ratioP1;P1;durP2;ratioP2;P2;SDS_P1;SDS_P2;PMS_P1;PMS_P2;Temp;Humidity;BMP_temperature;BMP_pressure;BME280_temperature;BME280_humidity;BME280_pressure;Samples;Min_cycle;Max_cycle;Signal;HPM_P1;HPM_P2
2022/01/14 00:01:17;;;;;;;24.95;12.40;;;6.10;99.90;;;;;;5089818;28;20028;-71
2022/01/14 00:03:43;;;;;;;22.02;12.32;;;6.10;99.90;;;;;;5090382;28;20555;-74
2022/01/14 00:06:09;;;;;;;18.60;11.27;;;6.10;99.90;;;;;;5091224;28;20392;-72
2022/01/14 00:08:35;;;;;;;26.48;12.65;;;6.00;99.90;;;;;;5090522;28;20065;-71
2022/01/14 00:11:03;;;;;;;26.33;13.80;;;6.40;99.90;;;;;;5073448;28;20079;-71
2022/01/14 00:13:48;;;;;;;21.17;11.90;;;6.10;99.90;;;;;;5091638;28;20383;-72
2022/01/14 00:16:14;;;;;;;27.10;10.82;;;6.10;99.90;;;;;;5090537;28;20044;-72
2022/01/14 00:18:39;;;;;;;19.38;12.32;;;6.50;99.90;;;;;;5091646;28;20035;-72
2022/01/14 00:21:05;;;;;;;25.70;11.23;;;6.20;99.90;;;;;;5091096;28;20122;-75
2022/01/14 00:23:36;;;;;;;28.73;13.52;;;6.00;99.90;;;;;;5073890;28;20197;-73
2022/01/14 00:31:43;;;;;;;23.13;10.63;;;5.90;99.90;;;;;;5102549;28;20511;-73
2022/01/14 00:34:11;;;;;;;27.38;11.82;;;6.10;99.90;;;;;;5107452;28;20044;-74
2022/01/14 00:36:38;;;;;;;22.05;9.95;;;6.10;99.90;;;;;;5090808;28;20071;-74
2022/01/14 00:39:09;;;;;;;18.90;11.05;;;6.20;99.90;;;;;;5090464;28;20481;-73
2022/01/14 00:41:36;;;;;;;29.00;12.30;;;6.20;99.90;;;;;;5087767;28;20047;-73
2022/01/14 00:44:08;;;;;;;29.63;12.55;;;5.90;99.90;;;;;;5093796;28;20085;-73
2022/01/14 00:46:33;;;;;;;26.80;12.70;;;6.10;99.90;;;;;;5111543;28;20496;-74
2022/01/14 00:48:59;;;;;;;25.17;11.30;;;6.20;99.90;;;;;;5111073;28;20092;-71
2022/01/14 00:51:25;;;;;;;27.23;12.40;;;6.40;99.90;;;;;;5110777;28;20088;-72
2022/01/14 00:53:51;;;;;;;34.00;11.77;;;;;;;;;;5093766;28;20043;-74
2022/01/14 00:59:14;;;;;;;26.25;11.93;;;5.90;99.90;;;;;;5089975;28;20036;-73
2022/01/14 01:01:42;;;;;;;23.00;13.20;;;6.20;99.90;;;;;;5090725;28;20043;-71
2022/01/14 01:04:09;;;;;;;27.23;13.50;;;6.20;99.90;;;;;;5089537;28;20032;-71
2022/01/14 01:06:36;;;;;;;26.52;13.65;;;6.10;99.90;;;;;;5072852;28;20036;-72
2022/01/14 01:09:05;;;;;;;25.27;12.07;;;6.40;99.90;;;;;;5090296;28;20040;-73
2022/01/14 01:11:35;;;;;;;25.85;12.30;;;6.20;99.90;;;;;;5096717;28;20073;-74
2022/01/14 01:14:08;;;;;;;28.30;12.15;;;7.70;99.90;;;;;;5110635;28;20047;-73
2022/01/14 01:16:34;;;;;;;25.23;13.50;;;6.20;99.90;;;;;;5094217;28;20039;-74
2022/01/14 01:18:59;;;;;;;26.02;13.07;;;6.30;99.90;;;;;;5110162;28;20100;-73
2022/01/14 01:21:25;;;;;;;26.98;12.90;;;6.30;99.90;;;;;;5094236;28;20038;-74
2022/01/14 01:23:51;;;;;;;26.55;13.32;;;6.30;99.90;;;;;;5082203;28;20108;-73
2022/01/14 01:26:25;;;;;;;24.60;13.20;;;6.30;99.90;;;;;;5073176;28;20036;-74
2022/01/14 01:31:35;;;;;;;23.08;12.13;;;6.30;99.90;;;;;;5090472;28;20040;-74
2022/01/14 01:34:07;;;;;;;26.50;13.80;;;6.20;99.90;;;;;;5089772;28;20393;-74
2022/01/14 01:36:33;;;;;;;33.15;13.88;;;6.30;99.90;;;;;;5074150;28;20036;-74
2022/01/14 01:38:59;;;;;;;21.95;12.70;;;6.30;99.90;;;;;;5072267;28;20485;-74
2022/01/14 01:41:25;;;;;;;26.70;14.27;;;6.30;99.90;;;;;;5073937;28;20041;-74
2022/01/14 01:43:53;;;;;;;24.75;12.77;;;6.30;99.90;;;;;;5072744;28;20445;-74
2022/01/14 01:46:20;;;;;;;23.67;13.23;;;6.30;99.90;;;;;;5073232;28;20039;-74
2022/01/14 01:48:47;;;;;;;29.27;14.82;;;6.30;99.90;;;;;;5090434;28;20039;-74
2022/01/14 01:51:13;;;;;;;25.77;13.65;;;6.40;99.90;;;;;;5089985;28;20262;-74
2022/01/14 01:53:39;;;;;;;28.55;13.15;;;;;;;;;;5076692;28;20374;-73
2022/01/14 01:56:05;;;;;;;30.30;13.25;;;6.40;99.90;;;;;;5073048;28;20072;-74
2022/01/14 01:58:31;;;;;;;28.40;13.50;;;6.40;99.90;;;;;;5074302;28;20495;-74
2022/01/14 02:00:57;;;;;;;23.85;13.73;;;6.40;99.90;;;;;;5089333;28;20126;-73
2022/01/14 02:03:23;;;;;;;21.02;12.82;;;6.50;99.90;;;;;;5088728;28;20045;-74
2022/01/14 02:05:49;;;;;;;27.52;12.70;;;6.70;99.90;;;;;;5087243;28;20048;-74
2022/01/14 02:08:15;;;;;;;24.10;12.23;;;6.40;99.90;;;;;;5098647;28;20047;-73
2022/01/14 02:10:40;;;;;;;27.38;12.98;;;6.50;99.90;;;;;;5073577;28;20040;-73
2022/01/14 02:13:06;;;;;;;27.42;14.32;;;6.50;99.90;;;;;;5089758;28;20450;-74
2022/01/14 02:24:07;;;;;;;23.90;14.13;;;6.50;99.90;;;;;;5097424;28;20051;-73
2022/01/14 02:26:44;;;;;;;23.58;14.50;;;7.10;99.90;;;;;;5094013;28;20048;-74
2022/01/14 02:29:11;;;;;;;41.10;16.02;;;7.10;99.90;;;;;;5075435;28;20066;-74
2022/01/14 02:31:37;;;;;;;26.85;13.63;;;8.00;99.90;;;;;;5093418;28;20079;-74
2022/01/14 02:34:02;;;;;;;24.42;13.02;;;6.60;99.90;;;;;;5093228;28;20038;-73
2022/01/14 02:36:29;;;;;;;25.13;13.30;;;6.60;99.90;;;;;;5092954;28;20093;-73
2022/01/14 02:38:55;;;;;;;27.30;13.18;;;6.60;99.90;;;;;;5093237;28;20043;-73
2022/01/14 02:41:21;;;;;;;24.35;15.40;;;6.60;99.90;;;;;;5103974;28;20028;-73
2022/01/14 02:43:47;;;;;;;28.88;14.45;;;6.60;99.90;;;;;;5112882;28;20400;-73
2022/01/14 02:46:14;;;;;;;26.90;13.55;;;6.60;99.90;;;;;;5100421;28;20388;-73
2022/01/14 02:48:40;;;;;;;24.38;15.07;;;6.60;99.90;;;;;;5093726;28;20044;-73
2022/01/14 02:51:14;;;;;;;23.65;13.65;;;6.60;99.90;;;;;;5075187;28;20101;-73
2022/01/14 02:56:15;;;;;;;27.58;13.43;;;7.70;99.90;;;;;;5094045;28;20121;-74
2022/01/14 02:58:42;;;;;;;30.55;13.93;;;6.60;99.90;;;;;;5093114;28;20044;-74
2022/01/14 03:01:18;;;;;;;22.65;13.70;;;6.60;99.90;;;;;;5095108;28;20478;-73
2022/01/14 03:03:45;;;;;;;25.00;12.52;;;6.60;99.90;;;;;;5072090;28;20553;-74
2022/01/14 03:06:12;;;;;;;26.75;13.23;;;6.60;99.90;;;;;;5086923;28;20106;-74
2022/01/14 03:08:39;;;;;;;25.35;12.73;;;6.60;99.90;;;;;;5110632;28;20048;-73
2022/01/14 03:11:11;;;;;;;22.98;11.95;;;6.60;99.90;;;;;;5108686;28;20082;-74
2022/01/14 03:13:37;;;;;;;27.48;12.90;;;6.60;99.90;;;;;;5093063;28;20389;-73
2022/01/14 03:16:04;;;;;;;31.67;14.68;;;6.60;99.90;;;;;;5092380;28;20032;-73
2022/01/14 03:18:40;;;;;;;28.65;13.48;;;6.60;99.90;;;;;;5075361;28;20040;-73
2022/01/14 03:21:10;;;;;;;23.92;12.77;;;6.70;99.90;;;;;;5092512;28;20382;-73
2022/01/14 03:23:43;;;;;;;27.30;13.55;;;7.40;99.90;;;;;;5109807;28;20055;-74
2022/01/14 03:26:09;;;;;;;24.65;13.35;;;6.60;99.90;;;;;;5074701;28;20564;-73
2022/01/14 03:28:35;;;;;;;26.98;13.77;;;6.60;99.90;;;;;;5075496;28;20135;-74
2022/01/14 03:31:00;;;;;;;21.02;12.57;;;6.60;99.90;;;;;;5091991;28;20054;-73
2022/01/14 03:33:26;;;;;;;22.92;13.57;;;6.60;99.90;;;;;;5075232;28;20039;-73
2022/01/14 03:35:52;;;;;;;21.02;12.40;;;6.60;99.90;;;;;;5091531;28;20048;-73
2022/01/14 03:38:18;;;;;;;21.83;13.93;;;6.60;99.90;;;;;;5092795;28;20079;-73
2022/01/14 03:40:44;;;;;;;28.85;13.23;;;6.70;99.90;;;;;;5074813;28;20040;-73
2022/01/14 03:43:10;;;;;;;23.25;12.55;;;6.60;99.90;;;;;;5092000;28;20400;-73
2022/01/14 03:45:38;;;;;;;32.95;14.10;;;;;;;;;;5091540;28;20614;-73
2022/01/14 03:48:06;;;;;;;23.15;13.10;;;6.60;99.90;;;;;;5079725;28;20047;-73
2022/01/14 03:50:33;;;;;;;25.20;13.02;;;6.60;99.90;;;;;;5112399;28;20047;-73
2022/01/14 03:52:59;;;;;;;26.17;11.23;;;6.60;99.90;;;;;;5093744;28;20035;-73
2022/01/14 03:55:25;;;;;;;20.92;13.25;;;7.00;99.90;;;;;;5102881;28;20040;-73
2022/01/14 03:57:50;;;;;;;25.63;13.15;;;6.60;99.90;;;;;;5091800;28;20044;-73
2022/01/14 04:00:17;;;;;;;21.83;12.20;;;6.60;99.90;;;;;;5091457;28;20040;-73
2022/01/14 04:02:43;;;;;;;21.77;12.05;;;6.60;99.90;;;;;;5075048;28;20377;-73
2022/01/14 04:05:09;;;;;;;24.10;13.80;;;6.60;99.90;;;;;;5054575;28;20500;-73
2022/01/14 04:07:35;;;;;;;26.92;13.93;;;6.60;99.90;;;;;;5070961;28;20044;-73
2022/01/14 04:10:02;;;;;;;23.25;13.60;;;8.40;99.90;;;;;;5101995;28;20388;-73
2022/01/14 04:13:15;;;;;;;24.27;13.40;;;8.10;99.90;;;;;;5112176;28;20065;-73
2022/01/14 04:15:37;;;;;;;24.42;13.63;;;7.40;99.90;;;;;;5067941;28;20041;-73
2022/01/14 04:18:08;;;;;;;22.75;13.50;;;6.60;99.90;;;;;;5070964;28;20045;-73
2022/01/14 04:20:36;;;;;;;26.42;14.15;;;6.60;99.90;;;;;;5071496;28;20047;-72
2022/01/14 04:23:04;;;;;;;25.40;12.93;;;6.50;99.90;;;;;;5073449;28;21741;-73
2022/01/14 04:25:31;;;;;;;30.50;14.85;;;7.40;99.90;;;;;;5073388;28;20072;-73
2022/01/14 04:27:57;;;;;;;24.75;13.02;;;6.50;99.90;;;;;;5106745;28;20503;-73
2022/01/14 04:30:23;;;;;;;25.92;14.50;;;6.50;99.90;;;;;;5091296;28;20059;-73
2022/01/14 04:32:48;;;;;;;21.92;12.68;;;6.50;99.90;;;;;;5074146;28;20105;-73
2022/01/14 04:35:14;;;;;;;20.55;12.45;;;6.50;99.90;;;;;;5090345;28;20034;-73
2022/01/14 04:37:40;;;;;;;24.65;13.38;;;6.50;99.90;;;;;;5107982;28;20032;-73
2022/01/14 04:40:06;;;;;;;24.77;15.07;;;6.40;99.90;;;;;;5090469;28;20044;-73
2022/01/14 04:42:33;;;;;;;27.85;13.93;;;6.40;99.90;;;;;;5106891;28;20035;-74
2022/01/14 04:44:58;;;;;;;25.45;14.13;;;6.80;99.90;;;;;;5107709;28;20082;-74
2022/01/14 04:47:44;;;;;;;25.80;14.00;;;6.50;99.90;;;;;;5099341;28;20087;-73
2022/01/14 04:50:12;;;;;;;22.83;12.30;;;9.40;99.90;;;;;;5086647;28;20041;-73
2022/01/14 04:52:39;;;;;;;23.65;12.48;;;;;;;;;;5080992;28;20052;-73
2022/01/14 04:55:07;;;;;;;23.60;12.20;;;6.40;99.90;;;;;;5107510;28;20503;-74
2022/01/14 04:57:32;;;;;;;28.70;12.63;;;6.40;99.90;;;;;;5107023;28;20043;-73
2022/01/14 04:59:58;;;;;;;27.35;13.65;;;6.40;99.90;;;;;;5090710;28;20412;-74
2022/01/14 05:02:24;;;;;;;23.25;11.77;;;6.40;99.90;;;;;;5091285;28;20184;-73
2022/01/14 05:04:51;;;;;;;24.67;13.30;;;7.20;99.90;;;;;;5073223;28;20124;-74
2022/01/14 05:07:24;;;;;;;24.83;13.30;;;6.40;99.90;;;;;;5090661;28;20485;-74
2022/01/14 05:10:07;;;;;;;26.20;14.35;;;6.40;99.90;;;;;;5073957;28;20051;-73
2022/01/14 05:12:40;;;;;;;25.88;13.95;;;6.40;99.90;;;;;;5091673;28;20359;-73
2022/01/14 05:15:07;;;;;;;27.35;14.25;;;6.40;99.90;;;;;;5090664;28;20043;-73
2022/01/14 05:17:33;;;;;;;27.23;13.10;;;6.40;99.90;;;;;;5076500;28;20031;-73
2022/01/14 05:19:59;;;;;;;20.40;13.13;;;;;;;;;;5110577;28;20050;-73
2022/01/14 05:22:26;;;;;;;21.65;11.98;;;6.40;99.90;;;;;;5081064;28;20051;-73
2022/01/14 05:24:52;;;;;;;18.58;11.23;;;6.40;99.90;;;;;;5100806;28;20170;-73
2022/01/14 05:27:18;;;;;;;30.67;13.43;;;6.40;99.90;;;;;;5111404;28;20092;-73
2022/01/14 05:29:44;;;;;;;20.88;11.90;;;6.40;99.90;;;;;;5111052;28;20099;-73
2022/01/14 05:32:13;;;;;;;26.83;12.27;;;6.80;99.90;;;;;;5109498;28;20077;-72
2022/01/14 05:34:39;;;;;;;22.75;12.48;;;6.40;99.90;;;;;;5111341;28;20046;-74
2022/01/14 05:37:06;;;;;;;23.13;12.52;;;6.40;99.90;;;;;;5103418;28;20115;-73
2022/01/14 05:39:32;;;;;;;23.58;12.07;;;7.60;99.90;;;;;;5073389;28;20043;-73
2022/01/14 05:42:00;;;;;;;24.10;10.98;;;6.50;99.90;;;;;;5107238;28;20174;-75
2022/01/14 05:44:26;;;;;;;24.17;11.85;;;8.20;99.90;;;;;;5074056;28;20040;-74
2022/01/14 05:46:54;;;;;;;21.23;10.43;;;6.40;99.90;;;;;;5082021;28;20127;-73
2022/01/14 05:49:20;;;;;;;20.63;12.32;;;7.20;99.90;;;;;;5070713;28;20052;-73
2022/01/14 05:51:45;;;;;;;26.13;11.05;;;6.20;99.90;;;;;;5076741;28;20040;-74
2022/01/14 05:54:12;;;;;;;21.30;10.10;;;6.40;99.90;;;;;;5081238;28;20040;-74
2022/01/14 05:56:37;;;;;;;24.45;10.90;;;6.50;99.90;;;;;;5115304;28;20085;-73
2022/01/14 05:59:03;;;;;;;17.38;10.45;;;6.50;99.90;;;;;;5107794;28;20040;-73
2022/01/14 06:01:30;;;;;;;22.20;12.00;;;6.50;99.90;;;;;;5093765;28;20043;-73
2022/01/14 06:04:00;;;;;;;22.88;12.10;;;6.50;99.90;;;;;;5076859;28;20126;-73
2022/01/14 06:06:26;;;;;;;20.70;12.15;;;6.50;99.90;;;;;;5093918;28;20480;-73
2022/01/14 06:08:52;;;;;;;22.05;12.48;;;6.50;99.90;;;;;;5094184;28;20040;-74
2022/01/14 06:11:18;;;;;;;22.95;11.73;;;6.50;99.90;;;;;;5077527;28;20127;-73
2022/01/14 06:13:45;;;;;;;20.85;12.50;;;6.50;99.90;;;;;;5108794;28;20233;-73
2022/01/14 06:16:10;;;;;;;24.15;11.57;;;6.40;99.90;;;;;;5093960;28;20423;-72
2022/01/14 06:18:36;;;;;;;20.50;11.15;;;6.80;99.90;;;;;;5077672;28;20500;-72
2022/01/14 06:21:02;;;;;;;31.08;11.45;;;6.40;99.90;;;;;;5092699;28;20043;-73
2022/01/14 06:23:27;;;;;;;25.55;11.68;;;7.80;99.90;;;;;;5094276;28;20488;-73
2022/01/14 06:25:53;;;;;;;24.25;11.38;;;6.40;99.90;;;;;;5093207;28;20043;-73
2022/01/14 06:28:18;;;;;;;17.83;10.70;;;6.40;99.90;;;;;;5093133;28;20070;-73
2022/01/14 06:30:44;;;;;;;20.83;11.00;;;6.40;99.90;;;;;;5093789;28;20051;-73
2022/01/14 06:33:10;;;;;;;23.10;10.05;;;6.40;99.90;;;;;;5110271;28;20105;-73
2022/01/14 06:35:36;;;;;;;22.23;10.25;;;6.40;99.90;;;;;;5110680;28;20044;-72
2022/01/14 06:38:02;;;;;;;17.77;9.00;;;6.50;99.90;;;;;;5110124;28;20043;-73
2022/01/14 06:40:28;;;;;;;18.80;10.35;;;6.50;99.90;;;;;;5094042;28;20068;-73
2022/01/14 06:42:54;;;;;;;18.75;8.88;;;6.50;99.90;;;;;;5075523;28;20110;-74
2022/01/14 06:45:21;;;;;;;18.63;8.77;;;6.50;99.90;;;;;;5093772;28;20052;-73
2022/01/14 06:47:47;;;;;;;19.17;8.88;;;6.50;99.90;;;;;;5072476;28;20487;-73
2022/01/14 06:50:12;;;;;;;18.88;8.73;;;6.50;99.90;;;;;;5089793;28;20093;-73
2022/01/14 06:52:38;;;;;;;20.17;8.27;;;6.50;99.90;;;;;;5093405;28;20044;-73
2022/01/14 06:55:05;;;;;;;18.50;7.90;;;6.50;99.90;;;;;;5092507;28;20035;-73
2022/01/14 06:57:31;;;;;;;14.80;8.07;;;6.50;99.90;;;;;;5101624;28;20043;-73
2022/01/14 06:59:57;;;;;;;20.35;9.18;;;6.50;99.90;;;;;;5095495;28;20491;-73
2022/01/14 07:02:22;;;;;;;23.52;10.15;;;6.50;99.90;;;;;;5107029;28;20052;-73
2022/01/14 07:04:48;;;;;;;32.78;19.48;;;6.40;99.90;;;;;;5090608;28;20499;-73
2022/01/14 07:07:13;;;;;;;28.52;19.08;;;6.50;99.90;;;;;;5098365;28;20123;-73
2022/01/14 07:09:56;;;;;;;21.30;10.50;;;6.50;99.90;;;;;;5101225;28;20043;-73
2022/01/14 07:12:33;;;;;;;20.40;7.85;;;6.70;99.90;;;;;;5086083;28;20040;-73
2022/01/14 07:14:59;;;;;;;16.60;8.63;;;6.50;99.90;;;;;;5100980;28;20032;-73
2022/01/14 07:17:26;;;;;;;15.95;7.63;;;6.50;99.90;;;;;;5077510;28;20481;-73
2022/01/14 07:19:55;;;;;;;15.60;7.97;;;6.50;99.90;;;;;;5093309;28;20028;-73
2022/01/14 07:22:21;;;;;;;16.75;8.00;;;6.50;99.90;;;;;;5078696;28;20093;-73
2022/01/14 07:24:48;;;;;;;17.90;9.48;;;6.50;99.90;;;;;;5091670;28;20044;-74
2022/01/14 07:27:14;;;;;;;16.08;8.23;;;6.50;99.90;;;;;;5092423;28;20060;-73
2022/01/14 07:29:40;;;;;;;16.02;7.30;;;6.50;99.90;;;;;;5108984;28;20059;-73
2022/01/14 07:32:07;;;;;;;17.35;7.55;;;6.50;99.90;;;;;;5091022;28;20492;-73
2022/01/14 07:34:33;;;;;;;18.00;7.63;;;6.50;99.90;;;;;;5096631;28;20101;-73
2022/01/14 07:36:59;;;;;;;17.58;7.03;;;6.50;99.90;;;;;;5092413;28;20180;-73
2022/01/14 07:39:25;;;;;;;16.10;7.07;;;8.60;99.90;;;;;;5091978;28;20119;-73
2022/01/14 07:41:51;;;;;;;16.52;7.65;;;7.20;99.90;;;;;;5107646;28;20036;-72
2022/01/14 07:44:17;;;;;;;16.90;7.43;;;6.50;99.90;;;;;;5092208;28;20036;-72
2022/01/14 07:46:44;;;;;;;19.70;8.25;;;6.70;99.90;;;;;;5074495;28;20051;-73
2022/01/14 07:49:10;;;;;;;13.98;7.55;;;6.50;99.90;;;;;;5091220;28;20051;-73
2022/01/14 07:51:36;;;;;;;16.50;8.52;;;6.50;99.90;;;;;;5088276;28;20036;-75
2022/01/14 07:54:05;;;;;;;20.05;7.47;;;6.50;99.90;;;;;;5090577;28;20508;-74
2022/01/14 07:56:45;;;;;;;19.85;6.95;;;6.50;99.90;;;;;;5092311;28;20094;-73
2022/01/14 07:59:13;;;;;;;12.45;5.93;;;6.60;99.90;;;;;;5103648;28;20055;-73
2022/01/14 08:01:40;;;;;;;14.18;6.78;;;6.50;99.90;;;;;;5084295;28;20071;-73
2022/01/14 08:04:05;;;;;;;12.60;6.03;;;8.30;99.90;;;;;;5088563;28;20143;-73
2022/01/14 08:06:34;;;;;;;14.50;6.30;;;6.60;99.90;;;;;;5090118;28;20127;-73
2022/01/14 08:09:00;;;;;;;14.15;6.53;;;6.60;99.90;;;;;;5085419;28;20043;-74
2022/01/14 08:11:26;;;;;;;16.60;5.82;;;6.60;99.90;;;;;;5089188;28;20094;-73
2022/01/14 08:13:51;;;;;;;12.82;6.63;;;6.60;99.90;;;;;;5087721;28;20131;-74
2022/01/14 08:16:17;;;;;;;12.73;6.47;;;6.60;99.90;;;;;;5105507;28;20388;-74
2022/01/14 08:18:43;;;;;;;11.02;6.07;;;6.70;99.90;;;;;;5092699;28;20225;-74
2022/01/14 08:21:09;;;;;;;12.25;5.82;;;7.10;99.90;;;;;;5101775;28;20043;-73
2022/01/14 08:23:34;;;;;;;12.98;6.03;;;6.70;99.90;;;;;;5088963;28;20042;-73
2022/01/14 08:26:00;;;;;;;12.73;6.45;;;6.70;99.90;;;;;;5103816;28;20058;-74
2022/01/14 08:28:26;;;;;;;13.38;6.65;;;6.70;99.90;;;;;;5100530;28;20060;-74
2022/01/14 08:30:53;;;;;;;15.70;5.72;;;6.70;99.90;;;;;;5101624;28;20051;-74
2022/01/14 08:33:19;;;;;;;16.38;6.15;;;6.70;99.90;;;;;;5088733;28;20101;-74
2022/01/14 08:35:46;;;;;;;17.90;5.72;;;6.70;99.90;;;;;;5088131;28;20135;-74
2022/01/14 08:38:12;;;;;;;13.02;5.78;;;6.70;99.90;;;;;;5089120;28;20040;-74
2022/01/14 08:40:38;;;;;;;12.88;5.10;;;6.70;99.90;;;;;;5100419;28;20072;-74
2022/01/14 08:43:04;;;;;;;18.58;5.07;;;6.60;99.90;;;;;;5108287;28;20047;-74
2022/01/14 08:45:30;;;;;;;13.73;4.43;;;6.80;99.90;;;;;;5109526;28;20048;-74
2022/01/14 08:47:56;;;;;;;16.77;5.07;;;6.80;99.90;;;;;;5071669;28;20043;-73
2022/01/14 08:50:23;;;;;;;12.68;5.80;;;6.80;99.90;;;;;;5088206;28;20058;-73
2022/01/14 08:52:49;;;;;;;20.35;7.32;;;6.80;99.90;;;;;;5087459;28;20085;-73
2022/01/14 08:55:16;;;;;;;12.07;5.07;;;7.00;99.90;;;;;;5072798;28;20794;-74
2022/01/14 08:57:45;;;;;;;16.88;4.93;;;6.80;99.90;;;;;;5071785;28;20075;-74
2022/01/14 09:00:13;;;;;;;14.80;5.63;;;6.70;99.90;;;;;;5091403;28;20101;-74
2022/01/14 09:02:39;;;;;;;14.32;4.78;;;6.90;99.90;;;;;;5095853;28;20116;-74
2022/01/14 09:05:06;;;;;;;10.40;3.60;;;6.90;99.90;;;;;;5098778;28;20075;-74
2022/01/14 09:07:31;;;;;;;12.88;4.55;;;7.60;99.90;;;;;;5092823;28;20472;-74
2022/01/14 09:09:57;;;;;;;13.43;5.18;;;6.90;99.90;;;;;;5073646;28;20044;-74
2022/01/14 09:12:23;;;;;;;12.50;4.57;;;6.60;99.90;;;;;;5096662;28;20127;-75
2022/01/14 09:14:49;;;;;;;8.43;3.67;;;6.90;99.90;;;;;;5080969;28;20039;-74
2022/01/14 09:17:17;;;;;;;18.20;5.05;;;7.00;99.90;;;;;;5083977;28;20656;-75
2022/01/14 09:19:43;;;;;;;9.43;3.50;;;6.90;99.90;;;;;;5097711;28;20035;-74
2022/01/14 09:22:09;;;;;;;11.15;3.40;;;7.00;99.90;;;;;;5088064;28;20106;-74
2022/01/14 09:24:35;;;;;;;15.57;3.95;;;7.20;99.90;;;;;;5088325;28;20048;-72
2022/01/14 09:27:01;;;;;;;11.32;3.25;;;6.80;99.90;;;;;;5086280;28;20043;-74
2022/01/14 09:29:27;;;;;;;12.05;4.00;;;7.10;99.90;;;;;;5091941;28;20149;-72
2022/01/14 09:31:52;;;;;;;19.73;3.95;;;7.10;99.90;;;;;;5090468;28;20047;-74
2022/01/14 09:34:18;;;;;;;11.45;4.07;;;6.90;99.90;;;;;;5102876;28;20036;-74
2022/01/14 09:36:44;;;;;;;10.05;4.93;;;7.20;99.90;;;;;;5100014;28;20058;-74
2022/01/14 09:39:10;;;;;;;12.45;3.45;;;7.20;99.90;;;;;;5104600;28;20450;-74
2022/01/14 09:41:36;;;;;;;14.35;4.25;;;7.20;99.90;;;;;;5073403;28;20036;-73
2022/01/14 09:44:02;;;;;;;23.02;11.73;;;7.30;99.90;;;;;;5081753;28;20032;-73
2022/01/14 09:46:28;;;;;;;15.77;7.45;;;7.30;99.90;;;;;;5065701;28;20238;-73
2022/01/14 09:48:54;;;;;;;22.00;15.02;;;6.90;99.90;;;;;;5092745;28;20559;-73
2022/01/14 09:51:20;;;;;;;15.38;7.57;;;7.40;99.90;;;;;;5091587;28;20040;-73
2022/01/14 09:53:47;;;;;;;9.38;4.57;;;7.40;99.90;;;;;;5089421;28;20050;-73
2022/01/14 09:56:18;;;;;;;18.05;5.40;;;8.40;99.90;;;;;;5107018;28;20040;-73
2022/01/14 09:58:47;;;;;;;9.20;4.03;;;7.50;99.90;;;;;;5092413;28;20044;-73
2022/01/14 10:01:23;;;;;;;10.10;4.60;;;7.40;99.90;;;;;;5084940;28;20040;-73
2022/01/14 10:04:03;;;;;;;15.23;4.18;;;7.50;99.90;;;;;;5092852;28;20055;-74
2022/01/14 10:06:47;;;;;;;11.20;4.55;;;7.40;99.90;;;;;;5090373;28;20451;-74
2022/01/14 10:09:20;;;;;;;12.00;3.97;;;7.40;99.90;;;;;;5074920;28;20035;-73
2022/01/14 10:12:18;;;;;;;13.85;3.45;;;7.50;99.90;;;;;;5090997;28;20855;-74
2022/01/14 10:15:03;;;;;;;16.35;4.25;;;7.50;99.90;;;;;;5043176;28;20048;-75
2022/01/14 10:17:40;;;;;;;13.27;5.07;;;7.60;99.90;;;;;;5087385;28;20127;-74
2022/01/14 10:20:08;;;;;;;13.50;5.45;;;7.30;99.90;;;;;;5101667;28;20044;-73
2022/01/14 10:22:38;;;;;;;11.05;4.75;;;7.50;99.90;;;;;;5077251;28;20055;-73
2022/01/14 10:25:14;;;;;;;9.10;3.67;;;7.60;99.90;;;;;;5088852;28;20131;-73
2022/01/14 10:27:44;;;;;;;;;;;7.70;99.90;;;;;;5098659;28;20112;-73
2022/01/14 10:30:10;;;;;;;17.70;4.43;;;;;;;;;;5097766;28;19923;-73
2022/01/14 10:32:37;;;;;;;14.32;4.57;;;7.50;99.90;;;;;;5107154;28;20042;-73
2022/01/14 10:35:09;;;;;;;15.40;4.85;;;8.50;99.90;;;;;;5071994;28;20624;-73
2022/01/14 10:37:35;;;;;;;15.70;5.07;;;7.70;99.90;;;;;;5073321;28;20043;-72
2022/01/14 10:40:03;;;;;;;13.18;4.45;;;7.60;99.90;;;;;;5071766;28;20043;-73
2022/01/14 10:42:34;;;;;;;16.23;5.93;;;7.70;99.90;;;;;;5084720;28;20043;-73
2022/01/14 10:45:22;;;;;;;13.38;3.88;;;7.80;99.90;;;;;;5073789;28;20051;-73
2022/01/14 10:48:01;;;;;;;12.00;4.05;;;7.60;99.90;;;;;;5088791;28;20376;-73
2022/01/14 10:50:31;;;;;;;14.27;4.15;;;7.60;99.90;;;;;;5093903;28;20644;-73
2022/01/14 10:52:57;;;;;;;21.27;4.45;;;7.70;99.90;;;;;;5088872;28;20051;-74
2022/01/14 10:55:50;;;;;;;14.30;4.88;;;7.70;99.90;;;;;;5087757;28;20235;-74
2022/01/14 10:58:22;;;;;;;14.20;4.22;;;7.80;99.90;;;;;;5079610;28;20048;-73
2022/01/14 11:00:50;;;;;;;13.98;4.10;;;7.60;99.90;;;;;;5089426;28;20043;-77
2022/01/14 11:03:32;;;;;;;14.68;4.95;;;8.50;99.90;;;;;;5090624;28;20484;-77
2022/01/14 11:06:33;;;;;;;12.23;4.35;;;7.70;99.90;;;;;;5074027;28;20040;-77
2022/01/14 11:09:10;;;;;;;11.10;4.05;;;7.60;99.90;;;;;;5090224;28;20044;-77
2022/01/14 11:11:41;;;;;;;12.25;4.07;;;7.70;99.90;;;;;;5108240;28;20051;-77
2022/01/14 11:14:08;;;;;;;19.25;4.18;;;7.60;99.90;;;;;;5091510;28;20154;-78
2022/01/14 11:16:34;;;;;;;15.50;3.97;;;7.40;99.90;;;;;;5091179;28;20083;-77
2022/01/14 11:19:02;;;;;;;12.50;4.93;;;7.60;99.90;;;;;;5090472;28;20044;-77
2022/01/14 11:24:23;;;;;;;;;;;7.60;99.90;;;;;;5089846;28;20127;-78
2022/01/14 11:26:50;;;;;;;14.15;4.40;;;7.60;99.90;;;;;;5090764;28;19969;-77
2022/01/14 11:29:20;;;;;;;15.10;4.30;;;9.50;99.90;;;;;;5090103;28;20098;-77
2022/01/14 11:31:59;;;;;;;16.08;4.93;;;7.60;99.90;;;;;;5090467;28;20083;-77
2022/01/14 11:34:45;;;;;;;18.05;4.15;;;7.70;99.90;;;;;;5098696;28;20050;-76
2022/01/14 11:37:29;;;;;;;14.90;4.90;;;7.70;99.90;;;;;;5095427;28;20162;-76
2022/01/14 11:39:59;;;;;;;17.95;4.80;;;7.70;99.90;;;;;;5090103;28;20040;-76
2022/01/14 11:42:46;;;;;;;15.38;4.72;;;7.80;99.90;;;;;;5106378;28;20143;-74
2022/01/14 11:45:15;;;;;;;16.13;4.65;;;7.80;99.90;;;;;;5088975;28;20512;-74
2022/01/14 11:47:42;;;;;;;14.18;4.32;;;9.10;99.90;;;;;;5090271;28;20059;-75
2022/01/14 11:50:23;;;;;;;13.93;4.13;;;7.80;99.90;;;;;;5090458;28;20117;-76
2022/01/14 11:52:50;;;;;;;14.82;4.75;;;7.80;99.90;;;;;;5073137;28;20089;-71
2022/01/14 11:55:36;;;;;;;19.58;4.35;;;7.80;99.90;;;;;;5093423;28;20432;-78
2022/01/14 11:58:12;;;;;;;16.17;4.93;;;8.80;99.90;;;;;;5076190;28;20047;-75
2022/01/14 12:00:41;;;;;;;12.20;4.05;;;7.60;99.90;;;;;;5081300;28;20065;-75
2022/01/14 12:03:06;;;;;;;14.43;4.07;;;7.80;99.90;;;;;;5091850;28;20040;-75
2022/01/14 12:05:33;;;;;;;14.35;4.97;;;7.80;99.90;;;;;;5074368;28;20127;-75
2022/01/14 12:08:07;;;;;;;16.17;4.72;;;7.80;99.90;;;;;;5091719;28;20499;-75
2022/01/14 12:10:43;;;;;;;20.48;4.80;;;7.90;99.90;;;;;;5092118;28;20048;-75
2022/01/14 12:18:58;;;;;;;11.55;4.47;;;8.60;99.90;;;;;;5091105;28;20043;-74
2022/01/14 12:21:42;;;;;;;19.92;5.05;;;7.90;99.90;;;;;;5075120;28;20079;-75
2022/01/14 12:24:30;;;;;;;32.28;14.45;;;7.90;99.90;;;;;;5074494;28;20044;-75
2022/01/14 12:27:03;;;;;;;20.42;6.30;;;7.90;99.90;;;;;;5090232;28;20079;-78
2022/01/14 12:29:35;;;;;;;20.75;5.70;;;7.90;99.90;;;;;;5091622;28;20386;-77
2022/01/14 12:32:15;;;;;;;16.75;5.70;;;7.90;99.90;;;;;;5090861;28;20157;-75
2022/01/14 12:35:03;;;;;;;16.90;4.95;;;7.90;99.90;;;;;;5090689;28;20043;-75
2022/01/14 12:37:31;;;;;;;16.35;6.30;;;7.90;99.90;;;;;;5091612;28;20044;-75
2022/01/14 12:40:08;;;;;;;27.00;12.30;;;8.00;99.90;;;;;;5090898;28;20437;-75
2022/01/14 12:42:34;;;;;;;21.05;12.75;;;8.00;99.90;;;;;;5091753;28;20093;-75
2022/01/14 12:45:00;;;;;;;15.13;5.82;;;9.60;99.90;;;;;;5090635;28;20040;-75
2022/01/14 12:47:33;;;;;;;17.92;5.38;;;8.00;99.90;;;;;;5090493;28;20511;-75
2022/01/14 12:50:06;;;;;;;19.60;6.22;;;8.00;99.90;;;;;;5073844;28;20047;-75
2022/01/14 12:52:38;;;;;;;18.60;4.85;;;8.00;99.90;;;;;;5074342;28;20043;-75
2022/01/14 12:55:13;;;;;;;15.73;5.18;;;8.40;99.90;;;;;;5090032;28;20071;-74
2022/01/14 12:57:39;;;;;;;15.95;4.80;;;8.00;99.90;;;;;;5069993;28;20036;-75
2022/01/14 13:00:07;;;;;;;20.85;6.88;;;7.70;99.90;;;;;;5073650;28;20157;-75
2022/01/14 13:02:33;;;;;;;27.98;13.90;;;8.00;99.90;;;;;;5089311;28;20040;-74
2022/01/14 13:05:24;;;;;;;25.23;12.32;;;8.00;99.90;;;;;;5090508;28;20047;-74
2022/01/14 13:07:50;;;;;;;32.65;17.00;;;8.00;99.90;;;;;;5091130;28;20044;-74
2022/01/14 13:10:17;;;;;;;22.85;6.95;;;8.00;99.90;;;;;;5090410;28;20046;-78
2022/01/14 13:12:45;;;;;;;18.38;8.38;;;7.90;99.90;;;;;;5091052;28;20046;-77
2022/01/14 13:15:19;;;;;;;21.33;6.10;;;8.00;99.90;;;;;;5090600;28;20055;-78
2022/01/14 13:17:54;;;;;;;24.77;6.65;;;8.00;99.90;;;;;;5074368;28;20028;-78
2022/01/14 13:20:20;;;;;;;25.50;9.45;;;7.50;99.90;;;;;;5074606;28;20028;-78
2022/01/14 13:22:48;;;;;;;21.55;9.07;;;8.00;99.90;;;;;;5089917;28;20040;-78